Atwood, Wisconsin
Current Conditions -  °F | °C
As of 4:15 AM on Thursday 29 Jan 2015 (Local Time) from KMDZ Reporting Station
Haze Haze  
Wind Chill: 17°   Ceiling: 300
Heat Index: 26°   Visibility: 2mi
Dew Point: 25°   Wind: 8mph
Humidity: 96%   Direction: 310°NW
Pressure: 29.78"   Gusts: NA
Location:  44.9782°N, 90.5368°W
Report Text: KMDZ 291015Z AUTO 31007KT 2SM BR OVC003 M04/M04 A2978 RMK AO2 T10361041
Loading
Personal Weather Stations






























Interactive Weather Map New forecast layout! Learn more

10-Day Weather Forecast

Advertisements
Track Severe Weather on mobile